Terminal Aerodrome Forecast
Issued by NWS Tampa Bay Area, FL

Home | Current Version | Previous Version | Text Only | Print | Product List | Glossary On
Versions: 1 2 3 4 5 6 7 8 9 10 11 12 13
645
FTUS42 KTBW 111120
TAFSRQ
TAF
KSRQ 111120Z 1112/1212 VRB04KT P6SM SKC
     FM111400 06007KT P6SM FEW250
     FM111800 28009KT P6SM FEW250
     FM120000 VRB03KT P6SM SKC=

USA.gov is the U.S. government's official web portal to all federal, state and local government web resources and services.